Terminal Aerodrome Forecast
Issued by NWS

Home | Current Version | Previous Version | Graphics & Text | Print | Product List | Glossary On
Versions: 1 2 3 4 5 6 7 8 9 10 11 12 13 14 15 16 17 18 19 20 21 22 23 24 25 26 27 28 29 30 31 32 33 34 35 36 37 38 39 40 41 42 43 44 45 46 47 48 49 50
000
FTUS43 KLOT 191700
TAFGYY
TAF
KGYY 191737Z 1918/2018 23013G21KT 6SM -SHRA VCTS BKN025CB BKN035
      TEMPO 1918/1920 3SM -TSRA
     FM192000 25013G20KT P6SM BKN035
     FM200200 27007KT P6SM SCT040
     FM200800 28003KT 4SM BR SCT250
     FM201400 28009KT P6SM SCT250=

USA.gov is the U.S. government's official web portal to all federal, state and local government web resources and services.